Weather History for Antigo, WI

Change the Weather History Date:

Monday, February 18, 2013

  Actual Average Record
Temperature  
Mean Temperature 25 °F -  
Max Temperature 34 °F 28 °F 53 °F (1981)
Min Temperature 16 °F 10 °F -23 °F (2006)
Degree Days  
Heating Degree Days 40    
Moisture  
Dew Point 20 °F    
Average Humidity 79    
Maximum Humidity 95    
Minimum Humidity 66    
Precipitation  
Precipitation 0.00 in - - ()
Sea Level Pressure  
Sea Level Pressure 29.56 in    
Wind  
Wind Speed 11 mph (South)    
Max Wind Speed 15 mph    
Max Gust Speed 22 mph    
Visibility 8 miles    
Events Snow    
Averages and records for this station are not official NWS values.
T = Trace of Precipitation, MM = Missing Value Source: NWS Daily Summary

Daily Weather History Graph

Daily Weather History Graph

Search for Another Location

Airport:

Trip Planner

Search our weather history database for the weather conditions in past years. The results will help you decide how hot, cold, wet, or windy it might be!

Date:

Astronomy

Feb. 18, 2013 Rise Set
Actual Time 6:52 AM CST 5:28 PM CST
Civil Twilight 6:22 AM CST 5:58 PM CST
Nautical Twilight 5:48 AM CST 6:33 PM CST
Astronomical Twilight 5:14 AM CST 7:07 PM CST
Moon 11:06 AM CST (2/18) 1:39 AM CST (2/18)
Length of Visible Light 11h 36m
Length of Day
10h 36m
First Quarter, 58% of the Moon is Illuminated
Feb 18
First Quarter
Feb 25
Full
Mar 4
Last Quarter
Mar 11
New
Mar 19
First Quarter

Hourly Weather History & Observations

Time (CST) Temp. Windchill Dew Point Humidity Pressure Visibility Wind Dir Wind Speed Gust Speed Precip Events Conditions
12:15 AM 16.0 °F 1.1 °F 6.8 °F 67% 29.85 in 10.0 mi SSE 15.0 mph - N/A   Overcast
12:35 AM 16.2 °F 3.2 °F 6.6 °F 66% 29.83 in 10.0 mi SSE 11.5 mph - N/A   Overcast
12:55 AM 16.5 °F 3.0 °F 7.5 °F 68% 29.83 in 10.0 mi SSE 12.7 mph 21.9 mph N/A   Overcast
1:15 AM 16.5 °F 4.3 °F 8.1 °F 69% 29.81 in 10.0 mi SE 10.4 mph - N/A   Overcast
1:35 AM 16.9 °F 3.4 °F 8.4 °F 69% 29.80 in 10.0 mi SSE 12.7 mph 17.3 mph N/A   Overcast
1:55 AM 17.1 °F 4.3 °F 8.8 °F 70% 29.78 in 10.0 mi SE 11.5 mph - N/A   Overcast
2:15 AM 17.2 °F 3.9 °F 8.6 °F 69% 29.77 in 10.0 mi SE 12.7 mph - N/A   Mostly Cloudy
2:35 AM 17.1 °F 3.0 °F 9.1 °F 71% 29.75 in 10.0 mi SE 13.8 mph - N/A   Mostly Cloudy
2:55 AM 17.2 °F 2.7 °F 9.5 °F 72% 29.73 in 10.0 mi SE 15.0 mph - N/A   Mostly Cloudy
3:15 AM 18.0 °F 4.8 °F 10.2 °F 72% 29.73 in 10.0 mi SE 12.7 mph - N/A   Mostly Cloudy
3:35 AM 18.0 °F 6.9 °F 10.6 °F 73% 29.72 in 10.0 mi SE 9.2 mph - N/A   Overcast
3:55 AM 18.3 °F 5.9 °F 10.9 °F 73% 29.70 in 10.0 mi SE 11.5 mph - N/A   Overcast
4:15 AM 18.5 °F 6.1 °F 11.3 °F 73% 29.70 in 10.0 mi SE 11.5 mph - N/A   Overcast
4:35 AM 17.8 °F 5.9 °F 11.1 °F 75% 29.69 in 10.0 mi SE 10.4 mph - N/A   Scattered Clouds
4:55 AM 18.0 °F 5.4 °F 11.3 °F 75% 29.68 in 10.0 mi SE 11.5 mph - N/A   Clear
5:15 AM 18.0 °F 6.1 °F 11.5 °F 76% 29.68 in 10.0 mi SE 10.4 mph - N/A   Clear
5:35 AM 18.0 °F 5.4 °F 11.8 °F 77% 29.67 in 10.0 mi SE 11.5 mph - N/A   Clear
5:55 AM 18.0 °F 5.4 °F 12.0 °F 78% 29.67 in 10.0 mi SE 11.5 mph - N/A   Clear
6:15 AM 17.8 °F 5.9 °F 12.2 °F 79% 29.65 in 10.0 mi SE 10.4 mph - N/A   Clear
6:35 AM 18.9 °F 7.2 °F 13.5 °F 79% 29.64 in 10.0 mi SE 10.4 mph - N/A   Clear
6:55 AM 19.4 °F 7.2 °F 14.0 °F 80% 29.63 in 10.0 mi SE 11.5 mph - N/A   Clear
7:15 AM 19.4 °F 6.6 °F 14.4 °F 81% 29.62 in 10.0 mi SE 12.7 mph - N/A   Clear
7:35 AM 19.4 °F 6.0 °F 14.7 °F 82% 29.61 in 10.0 mi SE 13.8 mph - N/A   Clear
7:55 AM 20.1 °F 8.1 °F 15.1 °F 81% 29.61 in 10.0 mi SE 11.5 mph - N/A   Clear
8:15 AM 21.2 °F 9.5 °F 15.8 °F 80% 29.60 in 10.0 mi SE 11.5 mph - N/A   Clear
8:35 AM 22.1 °F 10.6 °F 16.5 °F 79% 29.60 in 10.0 mi SSE 11.5 mph - N/A   Clear
8:55 AM 23.0 °F 11.7 °F 16.9 °F 77% 29.60 in 10.0 mi SSE 11.5 mph - N/A   Clear
9:15 AM 24.3 °F 13.3 °F 18.1 °F 77% 29.59 in 10.0 mi SSE 11.5 mph - N/A   Clear
9:35 AM 25.5 °F 14.9 °F 18.9 °F 76% 29.59 in 10.0 mi South 11.5 mph - N/A   Clear
9:55 AM 25.7 °F 16.4 °F 19.4 °F 77% 29.57 in 10.0 mi SSE 9.2 mph - N/A   Clear
10:15 AM 26.6 °F 17.5 °F 19.8 °F 75% 29.57 in 10.0 mi SSE 9.2 mph - N/A   Clear
10:35 AM 27.5 °F 18.6 °F 20.5 °F 75% 29.56 in 10.0 mi SSE 9.2 mph - N/A   Clear
10:55 AM 28.6 °F 21.5 °F 21.0 °F 73% 29.56 in 10.0 mi South 6.9 mph - N/A   Clear
11:15 AM 29.3 °F 21.5 °F 21.9 °F 74% 29.55 in 10.0 mi South 8.1 mph - N/A   Clear
11:35 AM 30.2 °F 24.3 °F 22.5 °F 73% 29.53 in 10.0 mi SSE 5.8 mph - N/A   Clear
11:55 AM 31.1 °F 25.4 °F 23.2 °F 72% 29.52 in 10.0 mi SSE 5.8 mph - N/A   Clear
12:15 PM 31.6 °F 23.1 °F 23.5 °F 72% 29.52 in 10.0 mi SSE 10.4 mph - N/A   Clear
12:35 PM 32.0 °F 24.8 °F 24.1 °F 73% 29.50 in 10.0 mi SSE 8.1 mph - N/A   Clear
12:55 PM 32.0 °F 23.6 °F 24.4 °F 74% 29.50 in 10.0 mi SSE 10.4 mph - N/A   Scattered Clouds
1:15 PM 32.2 °F 25.0 °F 24.3 °F 73% 29.49 in 10.0 mi South 8.1 mph - N/A   Scattered Clouds
1:35 PM 32.9 °F 26.7 °F 25.0 °F 73% 29.48 in 10.0 mi SSE 6.9 mph - N/A   Scattered Clouds
1:55 PM 32.5 °F 27.1 °F 25.5 °F 75% 29.47 in 10.0 mi SSE 5.8 mph - N/A   Scattered Clouds
2:15 PM 33.1 °F 27.7 °F 25.3 °F 73% 29.46 in 10.0 mi SSE 5.8 mph - N/A   Clear
2:35 PM 32.9 °F 27.5 °F 25.3 °F 74% 29.46 in 10.0 mi SSE 5.8 mph - N/A   Clear
2:55 PM 33.4 °F 26.6 °F 25.7 °F 73% 29.47 in 10.0 mi South 8.1 mph - N/A   Scattered Clouds
3:15 PM 33.3 °F 27.9 °F 25.7 °F 74% 29.47 in 10.0 mi South 5.8 mph - N/A   Mostly Cloudy
3:35 PM 33.8 °F 27.7 °F 26.2 °F 74% 29.48 in 10.0 mi SSW 6.9 mph - N/A   Overcast
3:55 PM 33.8 °F 29.6 °F 26.4 °F 74% 29.47 in 10.0 mi SSW 4.6 mph - N/A   Overcast
4:15 PM 34.0 °F 28.0 °F 26.6 °F 74% 29.47 in 10.0 mi SW 6.9 mph - N/A   Overcast
4:35 PM 33.4 °F 30.4 °F 26.8 °F 77% 29.46 in 10.0 mi SSW 3.5 mph - N/A   Overcast
4:55 PM 32.5 °F 28.1 °F 27.5 °F 82% 29.47 in 10.0 mi SW 4.6 mph - N/A   Overcast
5:15 PM 33.4 °F 29.1 °F 26.6 °F 76% 29.47 in 10.0 mi West 4.6 mph - N/A   Overcast
5:35 PM 32.5 °F 28.1 °F 27.5 °F 82% 29.47 in 3.0 mi West 4.6 mph - N/A Snow Light Snow
5:55 PM 32.0 °F 26.4 °F 28.4 °F 87% 29.47 in 3.0 mi WNW 5.8 mph - N/A Snow Light Snow
6:15 PM 31.1 °F 26.4 °F 28.8 °F 91% 29.46 in 4.0 mi NW 4.6 mph - N/A Snow Light Snow
6:35 PM 30.6 °F 27.1 °F 28.9 °F 94% 29.47 in 4.0 mi WNW 3.5 mph - N/A Snow Light Snow
6:55 PM 30.2 °F 25.4 °F 28.9 °F 95% 29.47 in 5.0 mi WNW 4.6 mph - N/A Snow Light Snow
7:15 PM 30.2 °F 25.4 °F 28.9 °F 95% 29.46 in 5.0 mi WNW 4.6 mph - N/A Snow Light Snow
7:35 PM 30.2 °F 24.3 °F 28.8 °F 94% 29.46 in 5.0 mi WNW 5.8 mph - N/A   Overcast
7:55 PM 30.0 °F 23.2 °F 28.4 °F 94% 29.44 in 5.0 mi WNW 6.9 mph - N/A Snow Light Snow
8:15 PM 29.3 °F 21.5 °F 27.9 °F 94% 29.44 in 4.0 mi NW 8.1 mph - N/A Snow Light Snow
8:35 PM 29.1 °F 21.3 °F 27.5 °F 94% 29.42 in 4.0 mi NW 8.1 mph - N/A Snow Light Snow
8:55 PM 28.4 °F 21.2 °F 27.1 °F 95% 29.41 in 4.0 mi NW 6.9 mph - N/A Snow Light Snow
9:15 PM 28.6 °F 21.5 °F 27.0 °F 94% 29.41 in 4.0 mi NW 6.9 mph - N/A Snow Light Snow
9:35 PM 29.1 °F 20.6 °F 26.6 °F 90% 29.42 in 5.0 mi NW 9.2 mph - N/A   Overcast
9:55 PM 28.9 °F 19.2 °F 26.4 °F 90% 29.40 in 7.0 mi NW 11.5 mph - N/A   Overcast
10:15 PM 29.1 °F 19.4 °F 26.2 °F 89% 29.40 in 7.0 mi NW 11.5 mph - N/A   Overcast
10:35 PM 29.1 °F 18.4 °F 26.1 °F 88% 29.40 in 7.0 mi NW 13.8 mph - N/A   Overcast
10:55 PM 29.1 °F 20.0 °F 26.2 °F 89% 29.39 in 7.0 mi NW 10.4 mph - N/A   Overcast
11:15 PM 29.1 °F 19.4 °F 25.7 °F 87% 29.40 in 7.0 mi NNW 11.5 mph 21.9 mph N/A   Overcast
11:35 PM 28.9 °F 17.7 °F 25.9 °F 88% 29.39 in 2.5 mi NNW 15.0 mph 20.7 mph N/A Snow Light Snow
11:55 PM 28.4 °F 18.0 °F 26.6 °F 93% 29.40 in 1.5 mi NW 12.7 mph - N/A Snow Light Snow